| time (UTC) | temp C | wind direction | speed KPH | gust KPH | rain 1hr cm | rain 24hr cm | rain mn cm | humidity % | barometer mb |
| 20260906151612 | 22 | 116 | 6.4 | 9.7 | 0.00 | 0.03 | 0.03 | 85 | 1020.1 |
| 20260906150104 | 21 | 113 | 1.6 | 11.3 | 0.00 | 0.03 | 0.03 | 88 | 1020.0 |
| 20260906144602 | 21 | 0 | 0.0 | 8.0 | 0.00 | 0.03 | 0.03 | 88 | 1020.0 |
| 20260906143129 | 21 | 92 | 1.6 | 6.4 | 0.00 | 0.03 | 0.03 | 87 | 1020.0 |
| 20260906141559 | 20 | 93 | 4.8 | 8.0 | 0.00 | 0.03 | 0.03 | 88 | 1020.0 |
| 20260906140059 | 20 | 64 | 4.8 | 8.0 | 0.00 | 0.03 | 0.03 | 88 | 1019.9 |
| 20260906134612 | 20 | 70 | 3.2 | 9.7 | 0.00 | 0.03 | 0.03 | 89 | 1020.1 |
| 20260906133108 | 19 | 67 | 4.8 | 9.7 | 0.00 | 0.03 | 0.03 | 90 | 1019.9 |
| 20260906131600 | 18 | 60 | 4.8 | 9.7 | 0.00 | 0.03 | 0.03 | 90 | 1019.9 |
| 20260906130057 | 18 | 70 | 3.2 | 8.0 | 0.00 | 0.03 | 0.03 | 90 | 1019.8 |
| 20260906124602 | 17 | 71 | 0.0 | 6.4 | 0.00 | 0.03 | 0.03 | 90 | 1019.9 |
| 20260906123137 | 17 | 0 | 0.0 | 3.2 | 0.03 | 0.03 | 0.03 | 91 | 1019.6 |
| 20260906121558 | 16 | 0 | 0.0 | 1.6 | 0.03 | 0.03 | 0.03 | 92 | 1019.4 |
| 20260906120109 | 16 | 0 | 0.0 | 3.2 | 0.03 | 0.03 | 0.03 | 94 | 1019.5 |
| 20260906114610 | 15 | 0 | 0.0 | 0.0 | 0.03 | 0.03 | 0.03 | 94 | 1019.2 |
| 20260906113057 | 16 | 0 | 1.6 | 4.8 | 0.00 | 0.00 | 0.00 | 94 | 1019.3 |
| 20260906111558 | 15 | 0 | 3.2 | 6.4 | 0.00 | 0.00 | 0.00 | 94 | 1018.9 |
| 20260906110055 | 15 | 71 | 3.2 | 6.4 | 0.00 | 0.00 | 0.00 | 95 | 1018.4 |
| 20260906104601 | 15 | 96 | 1.6 | 3.2 | 0.00 | 0.00 | 0.00 | 95 | 1018.3 |
| 20260906103059 | 15 | 96 | 3.2 | 4.8 | 0.00 | 0.00 | 0.00 | 95 | 1018.3 |
| 20260906101603 | 16 | 96 | 1.6 | 6.4 | 0.00 | 0.00 | 0.00 | 95 | 1018.4 |
| 20260906100101 | 16 | 96 | 3.2 | 4.8 | 0.00 | 0.00 | 0.00 | 96 | 1018.3 |
| 20260906094609 | 16 | 0 | 0.0 | 0.0 | 0.00 | 0.00 | 0.00 | 96 | 1018.3 |
| 20260906093105 | 16 | 0 | 0.0 | 3.2 | 0.00 | 0.00 | 0.00 | 96 | 1018.4 |
| 20260906091608 | 16 | 0 | 0.0 | 3.2 | 0.00 | 0.00 | 0.00 | 96 | 1018.3 |
| 20260906090104 | 16 | 96 | 1.6 | 4.8 | 0.00 | 0.00 | 0.00 | 97 | 1018.3 |
| 20260906084607 | 16 | 0 | 0.0 | 0.0 | 0.00 | 0.00 | 0.00 | 96 | 1018.2 |
| 20260906083059 | 16 | 0 | 0.0 | 3.2 | 0.00 | 0.00 | 0.00 | 96 | 1018.1 |
| 20260906081603 | 16 | 115 | 1.6 | 4.8 | 0.00 | 0.00 | 0.00 | 97 | 1018.2 |
| 20260906080104 | 16 | 115 | 1.6 | 3.2 | 0.00 | 0.00 | 0.00 | 96 | 1018.1 |
| 20260906074605 | 16 | 0 | 0.0 | 1.6 | 0.00 | 0.00 | 0.00 | 97 | 1018.1 |
| 20260906073057 | 16 | 0 | 0.0 | 0.0 | 0.00 | 0.00 | 0.00 | 97 | 1018.1 |
| 20260906071558 | 16 | 0 | 0.0 | 0.0 | 0.00 | 0.00 | 0.00 | 96 | 1018.1 |
| 20260906070105 | 16 | 0 | 0.0 | 0.0 | 0.00 | 0.00 | 0.00 | 96 | 1018.1 |
| 20260906064558 | 17 | 0 | 0.0 | 0.0 | 0.00 | 0.00 | 0.00 | 96 | 1018.3 |
| 20260906063100 | 17 | 0 | 0.0 | 0.0 | 0.00 | 0.00 | 0.00 | 96 | 1018.3 |
| 20260906061600 | 17 | 0 | 0.0 | 0.0 | 0.00 | 0.00 | 0.00 | 96 | 1018.5 |
| 20260906060105 | 17 | 0 | 0.0 | 0.0 | 0.00 | 0.00 | 0.00 | 96 | 1018.4 |
| 20260906054559 | 17 | 0 | 0.0 | 0.0 | 0.00 | 0.00 | 0.00 | 96 | 1018.3 |
| 20260906053109 | 17 | 0 | 0.0 | 0.0 | 0.00 | 0.00 | 0.00 | 96 | 1018.2 |
| 20260906051605 | 17 | 0 | 0.0 | 1.6 | 0.00 | 0.00 | 0.00 | 96 | 1018.2 |
| 20260906050106 | 17 | 0 | 0.0 | 0.0 | 0.00 | 0.00 | 0.00 | 95 | 1018.4 |
| 20260906044558 | 18 | 0 | 0.0 | 0.0 | 0.00 | 0.00 | 0.00 | 95 | 1018.2 |
| 20260906043107 | 18 | 0 | 0.0 | 0.0 | 0.00 | 0.00 | 0.00 | 94 | 1018.0 |
| 20260906041601 | 18 | 0 | 0.0 | 0.0 | 0.00 | 0.00 | 0.00 | 94 | 1017.9 |
| 20260906040114 | 18 | 0 | 0.0 | 1.6 | 0.00 | 0.00 | 0.00 | 94 | 1017.7 |
| 20260906034607 | 19 | 0 | 0.0 | 1.6 | 0.00 | 0.00 | 0.00 | 93 | 1017.4 |
| 20260906033111 | 19 | 0 | 0.0 | 4.8 | 0.00 | 0.00 | 0.00 | 93 | 1017.2 |
| 20260906031603 | 19 | 0 | 0.0 | 3.2 | 0.00 | 0.00 | 0.00 | 93 | 1017.2 |
| 20260906024600 | 20 | 82 | 3.2 | 6.4 | 0.00 | 0.00 | 0.00 | 92 | 1017.1 |
| 20260906023100 | 20 | 94 | 3.2 | 6.4 | 0.00 | 0.00 | 0.00 | 92 | 1017.0 |
| 20260906021605 | 20 | 72 | 4.8 | 9.7 | 0.00 | 0.00 | 0.00 | 92 | 1016.8 |
| 20260906020107 | 21 | 89 | 4.8 | 11.3 | 0.00 | 0.00 | 0.00 | 92 | 1016.4 |
| 20260906014604 | 21 | 97 | 4.8 | 9.7 | 0.00 | 0.00 | 0.00 | 92 | 1016.3 |
| 20260906013111 | 21 | 96 | 1.6 | 9.7 | 0.00 | 0.00 | 0.00 | 91 | 1016.2 |
| 20260906011607 | 21 | 74 | 4.8 | 9.7 | 0.00 | 0.00 | 0.00 | 91 | 1016.0 |
| 20260906010111 | 21 | 63 | 4.8 | 8.0 | 0.00 | 0.00 | 0.00 | 90 | 1016.1 |
| 20260906004611 | 21 | 72 | 3.2 | 11.3 | 0.00 | 0.00 | 0.00 | 90 | 1016.0 |
| 20260906003106 | 22 | 71 | 4.8 | 9.7 | 0.00 | 0.00 | 0.00 | 89 | 1016.0 |
| 20260906001602 | 22 | 96 | 6.4 | 17.7 | 0.00 | 0.00 | 0.00 | 88 | 1016.0 |
| 20260906000109 | 23 | 68 | 8.0 | 12.9 | 0.00 | 0.00 | 0.00 | 86 | 1016.2 |
| 20260905234604 | 23 | 63 | 8.0 | 11.3 | 0.00 | 0.00 | 0.00 | 86 | 1016.2 |
| 20260905233103 | 24 | 51 | 9.7 | 19.3 | 0.00 | 0.00 | 0.00 | 85 | 1016.1 |
| 20260905231600 | 24 | 62 | 11.3 | 20.9 | 0.00 | 0.00 | 0.00 | 83 | 1016.1 |
| 20260905230110 | 24 | 55 | 4.8 | 14.5 | 0.00 | 0.00 | 0.00 | 83 | 1016.2 |
| 20260905224603 | 25 | 74 | 12.9 | 19.3 | 0.00 | 0.00 | 0.00 | 78 | 1016.1 |
| 20260905223100 | 25 | 63 | 11.3 | 19.3 | 0.00 | 0.00 | 0.00 | 77 | 1015.8 |
| 20260905221605 | 25 | 55 | 8.0 | 17.7 | 0.00 | 0.00 | 0.00 | 78 | 1015.7 |
| 20260905220106 | 26 | 39 | 8.0 | 12.9 | 0.00 | 0.00 | 0.00 | 77 | 1015.6 |
| 20260905214603 | 26 | 65 | 6.4 | 11.3 | 0.00 | 0.00 | 0.00 | 78 | 1015.7 |
| 20260905213102 | 25 | 52 | 4.8 | 11.3 | 0.00 | 0.00 | 0.00 | 78 | 1015.8 |
| 20260905211600 | 25 | 63 | 6.4 | 14.5 | 0.00 | 0.00 | 0.00 | 79 | 1015.8 |
| 20260905210123 | 25 | 47 | 4.8 | 11.3 | 0.00 | 0.00 | 0.00 | 80 | 1016.1 |
| 20260905204604 | 26 | 66 | 9.7 | 17.7 | 0.00 | 0.00 | 0.00 | 79 | 1015.8 |
| 20260905203058 | 25 | 32 | 9.7 | 20.9 | 0.00 | 0.00 | 0.00 | 82 | 1015.6 |
| 20260905201557 | 25 | 70 | 8.0 | 16.1 | 0.00 | 0.00 | 0.00 | 80 | 1015.7 |
| 20260905194610 | 25 | 68 | 9.7 | 16.1 | 0.00 | 0.00 | 0.00 | 83 | 1016.0 |
| 20260905193056 | 25 | 58 | 4.8 | 11.3 | 0.00 | 0.00 | 0.00 | 83 | 1016.2 |
| 20260905191609 | 24 | 85 | 4.8 | 14.5 | 0.00 | 0.00 | 0.00 | 84 | 1016.3 |
| 20260905190117 | 24 | 66 | 8.0 | 16.1 | 0.00 | 0.00 | 0.00 | 84 | 1016.3 |
| 20260905184623 | 24 | 44 | 4.8 | 14.5 | 0.00 | 0.00 | 0.00 | 84 | 1016.5 |
| 20260905183104 | 24 | 75 | 6.4 | 19.3 | 0.00 | 0.00 | 0.00 | 83 | 1016.5 |
| 20260905181607 | 24 | 33 | 9.7 | 16.1 | 0.00 | 0.00 | 0.00 | 85 | 1016.5 |
| 20260905180100 | 24 | 53 | 8.0 | 16.1 | 0.00 | 0.00 | 0.00 | 84 | 1016.5 |
| 20260905174600 | 24 | 67 | 4.8 | 16.1 | 0.00 | 0.00 | 0.00 | 85 | 1016.5 |
| 20260905173109 | 24 | 57 | 6.4 | 17.7 | 0.00 | 0.00 | 0.00 | 84 | 1016.6 |
| 20260905171605 | 25 | 74 | 3.2 | 16.1 | 0.00 | 0.00 | 0.00 | 85 | 1016.6 |
| 20260905170101 | 24 | 65 | 3.2 | 12.9 | 0.00 | 0.00 | 0.00 | 86 | 1016.6 |
| 20260905164603 | 23 | 65 | 3.2 | 11.3 | 0.00 | 0.00 | 0.00 | 86 | 1016.6 |
| 20260905163110 | 23 | 77 | 8.0 | 14.5 | 0.00 | 0.00 | 0.00 | 86 | 1016.6 |
| 20260905161555 | 23 | 47 | 8.0 | 19.3 | 0.00 | 0.00 | 0.00 | 87 | 1016.5 |
| 20260905160059 | 22 | 59 | 6.4 | 12.9 | 0.00 | 0.00 | 0.00 | 89 | 1016.4 |
| 20260905154616 | 22 | 0 | 3.2 | 12.9 | 0.00 | 0.00 | 0.00 | 91 | 1016.5 |
| 20260905153107 | 22 | 88 | 4.8 | 12.9 | 0.00 | 0.00 | 0.00 | 91 | 1016.5 |